Aviation Digital Data Service (ADDS)

Output produced by METARs form (0334 UTC 19 July 2018)
found at http://www.aviationweather.gov/adds/metars/
 
TAF LWOH 190230Z 1903/2003 34006KT 9999 FEW050 
     BECMG 1909/1911 SCT040 BKN090 
     PROB40 
     TEMPO 1912/1918 VRB15KT SHRA SCT035TCU BKN050
       
LWSK 190300Z 08003KT 9999 FEW050 BKN090 20/14 Q1011 NOSIG
TAF LWSK 190230Z 1903/2003 VRB02KT 9999 FEW050 BKN090 
     TEMPO 1903/1909 36010KT 
     BECMG 1907/1909 34010KT SCT040 BKN080 
     PROB40 
     TEMPO 1912/1916 02020KT -SHRA FEW035TCU BKN050
       
TAF LWOH 190230Z 1903/2003 34006KT 9999 FEW050 
     BECMG 1909/1911 SCT040 BKN090 
     PROB40 
     TEMPO 1912/1918 VRB15KT SHRA SCT035TCU BKN050
       
LWSK 190300Z 08003KT 9999 FEW050 BKN090 20/14 Q1011 NOSIG
TAF LWSK 190230Z 1903/2003 VRB02KT 9999 FEW050 BKN090 
     TEMPO 1903/1909 36010KT 
     BECMG 1907/1909 34010KT SCT040 BKN080 
     PROB40 
     TEMPO 1912/1916 02020KT -SHRA FEW035TCU BKN050